Blue Ridge Observed Data For Previous 48 Hours

Caption
Day and Hour Reservoir Elevation (behind dam)* Tailwater Elevation (below dam)* Average Hourly Discharge*
6/20/2018 2 AM EDT 1,686.55 1,540.84 160
6/20/2018 3 AM EDT 1,686.56 1,540.84 160
6/20/2018 4 AM EDT 1,686.57 1,540.84 160
6/20/2018 5 AM EDT 1,686.59 1,540.84 160
6/20/2018 6 AM EDT 1,686.60 1,540.84 160
6/20/2018 7 AM EDT 1,686.58 1,540.84 160
6/20/2018 8 AM EDT 1,686.61 1,540.84 160
6/20/2018 9 AM EDT 1,686.61 1,540.84 160
6/20/2018 10 AM EDT 1,686.61 1,540.84 160
6/20/2018 11 AM EDT 1,686.59 1,540.84 160
6/20/2018 12 PM EDT 1,686.60 1,540.84 160
6/20/2018 1 PM EDT 1,686.60 1,540.85 160
6/20/2018 2 PM EDT 1,686.60 1,540.82 160
6/20/2018 3 PM EDT 1,686.59 1,543.54 1,658
6/20/2018 4 PM EDT 1,686.56 1,543.64 1,724
6/20/2018 5 PM EDT 1,686.52 1,543.64 1,720
6/20/2018 6 PM EDT 1,686.49 1,543.63 1,726
6/20/2018 7 PM EDT 1,686.46 1,543.63 1,719
6/20/2018 8 PM EDT 1,686.44 1,543.64 1,722
6/20/2018 9 PM EDT 1,686.43 1,543.63 1,719
6/20/2018 10 PM EDT 1,686.44 1,540.97 277
6/20/2018 11 PM EDT 1,686.46 1,540.84 160
6/21/2018 12 AM EDT 1,686.47 1,540.84 160
6/21/2018 1 AM EDT 1,686.49 1,540.84 160
6/21/2018 2 AM EDT 1,686.49 1,540.84 160
6/21/2018 3 AM EDT 1,686.50 1,540.84 160
6/21/2018 4 AM EDT 1,686.51 1,540.85 160
6/21/2018 5 AM EDT 1,686.52 1,540.85 160
6/21/2018 6 AM EDT 1,686.53 1,540.85 160
6/21/2018 7 AM EDT 1,686.54 1,540.85 160
6/21/2018 8 AM EDT 1,686.55 1,540.85 160
6/21/2018 9 AM EDT 1,686.56 1,540.85 160
6/21/2018 10 AM EDT 1,686.55 1,540.85 160
6/21/2018 11 AM EDT 1,686.56 1,540.85 160
6/21/2018 12 PM EDT 1,686.56 1,540.85 160
6/21/2018 1 PM EDT 1,686.56 1,540.85 160
6/21/2018 2 PM EDT 1,686.56 1,540.85 160
6/21/2018 3 PM EDT 1,686.53 1,540.80 173
6/21/2018 4 PM EDT 1,686.51 1,543.52 1,655
6/21/2018 5 PM EDT 1,686.49 1,543.61 1,704
6/21/2018 6 PM EDT 1,686.46 1,543.63 1,708
6/21/2018 7 PM EDT 1,686.44 1,543.61 1,704
6/21/2018 8 PM EDT 1,686.43 1,543.62 1,703
6/21/2018 9 PM EDT 1,686.36 1,543.62 1,701
6/21/2018 10 PM EDT 1,686.44 1,541.44 417
6/21/2018 11 PM EDT 1,686.42 1,541.37 317
6/22/2018 12 AM EDT 1,686.45 1,541.37 317
6/22/2018 1 AM EDT 1,686.42 1,541.37 317

Elevations are in feet above sea level. Discharges are in cubic feet per second and are reported at the end of the hour.